Terminal Aerodrome Forecast
Issued by NWS

Home | Current Version | Previous Version | Text Only | Print | Product List | Glossary On
Versions: 1 2 3 4 5 6 7 8 9 10 11 12 13 14
000
FTUS45 KBOU 160526
TAFAPA
TAF
KAPA 160526Z 1606/1706 22006KT P6SM SCT120 BKN220
     FM161200 17006KT P6SM SCT120 BKN200
     FM161600 03010KT P6SM BKN100 BKN150
     FM162100 06008KT P6SM SCT070 BKN120
     FM170100 09010KT P6SM BKN060 BKN100
     FM170400 14008KT P6SM VCSH SCT045 BKN060 OVC080=

USA.gov is the U.S. government's official web portal to all federal, state and local government web resources and services.